Time;durP1;ratioP1;P1;durP2;ratioP2;P2;SDS_P1;SDS_P2;PMS_P1;PMS_P2;Temp;Humidity;BMP_temperature;BMP_pressure;BME280_temperature;BME280_humidity;BME280_pressure;Samples;Min_cycle;Max_cycle;Signal;HPM_P1;HPM_P2
2022/07/26 00:01:23;;;;;;;11.68;9.27;;;;;;;23.37;68.46;99310.53;5050257;28;20044;-85
2022/07/26 00:03:50;;;;;;;11.02;9.52;;;;;;;23.38;69.42;99301.47;5050836;28;20087;-85
2022/07/26 00:06:16;;;;;;;10.55;9.55;;;;;;;23.38;68.88;99300.72;5034269;28;20083;-82
2022/07/26 00:08:41;;;;;;;9.88;8.88;;;;;;;23.33;69.42;99299.53;5050579;28;20041;-82
2022/07/26 00:11:07;;;;;;;12.70;9.80;;;;;;;23.35;68.94;99307.47;5052120;28;20096;-83
2022/07/26 00:13:33;;;;;;;10.65;9.45;;;;;;;23.24;69.64;99286.56;5021731;28;20037;-84
2022/07/26 00:15:59;;;;;;;10.05;9.05;;;;;;;23.18;69.48;99288.72;5062643;28;20045;-83
2022/07/26 00:18:24;;;;;;;10.13;9.18;;;;;;;23.24;69.59;99302.78;5033853;28;20064;-83
2022/07/26 00:20:50;;;;;;;10.75;9.65;;;;;;;23.20;69.17;99293.84;5050235;28;20063;-83
2022/07/26 00:23:18;;;;;;;10.23;8.88;;;;;;;23.18;69.03;99291.56;5033008;28;20065;-83
2022/07/26 00:25:43;;;;;;;10.82;9.68;;;;;;;23.16;69.66;99288.53;5034353;28;20037;-85
2022/07/26 00:28:09;;;;;;;10.32;9.32;;;;;;;23.15;68.42;99272.09;5048313;28;20044;-85
2022/07/26 00:30:35;;;;;;;11.75;9.48;;;;;;;23.12;68.88;99276.78;5031685;28;20041;-85
2022/07/26 00:33:00;;;;;;;11.05;9.32;;;;;;;23.05;69.58;99273.81;5050623;28;20490;-85
2022/07/26 00:35:26;;;;;;;10.27;9.30;;;;;;;23.03;69.42;99265.09;5049718;28;20040;-85
2022/07/26 00:37:52;;;;;;;10.25;9.18;;;;;;;23.03;68.94;99262.28;5050865;28;20040;-85
2022/07/26 00:40:17;;;;;;;12.23;9.20;;;;;;;23.00;68.98;99266.97;5050501;28;20632;-86
2022/07/26 00:42:43;;;;;;;12.45;9.57;;;;;;;23.02;69.54;99258.69;5032286;28;20036;-83
2022/07/26 00:45:10;;;;;;;9.98;9.05;;;;;;;23.01;69.15;99262.06;5050004;28;20527;-86
2022/07/26 00:47:36;;;;;;;10.27;9.27;;;;;;;23.00;69.60;99261.31;5028201;28;20037;-85
2022/07/26 00:50:04;;;;;;;9.95;8.90;;;;;;;23.01;69.31;99262.81;5013444;28;20694;-85
2022/07/26 00:52:29;;;;;;;9.88;8.90;;;;;;;22.99;69.27;99256.94;5031647;28;20041;-85
2022/07/26 00:54:55;;;;;;;10.38;9.35;;;;;;;22.92;69.72;99257.59;5050563;28;20044;-85
2022/07/26 00:57:22;;;;;;;10.88;9.18;;;;;;;22.84;70.65;99247.47;5032453;28;20559;-86
2022/07/26 00:59:47;;;;;;;10.55;9.45;;;;;;;22.79;70.30;99249.06;5047724;28;20037;-85
2022/07/26 01:02:13;;;;;;;10.90;9.95;;;;;;;22.73;72.14;99242.72;5220945;22;20060;-84
2022/07/26 01:04:40;;;;;;;14.77;9.70;;;;;;;22.67;71.77;99242.81;5080583;22;20112;-82
2022/07/26 01:07:05;;;;;;;10.80;9.70;;;;;;;22.65;72.17;99236.16;5023851;28;20404;-81
2022/07/26 01:09:31;;;;;;;11.57;9.93;;;;;;;22.68;72.28;99237.94;5060896;28;20048;-82
2022/07/26 01:11:58;;;;;;;10.30;9.30;;;;;;;22.68;71.80;99246.41;5029392;28;20048;-82
2022/07/26 01:14:24;;;;;;;10.40;9.32;;;;;;;22.67;71.93;99239.22;5029155;28;20045;-82
2022/07/26 01:16:50;;;;;;;10.65;9.65;;;;;;;22.63;72.54;99230.31;5030167;28;20400;-82
2022/07/26 01:19:16;;;;;;;10.45;9.55;;;;;;;22.58;73.73;99220.59;5029053;28;20508;-82
2022/07/26 01:21:42;;;;;;;10.55;9.55;;;;;;;22.50;74.50;99228.19;5030368;28;20040;-82
2022/07/26 01:24:07;;;;;;;10.18;9.25;;;;;;;22.45;74.97;99216.97;5028971;28;20117;-81
2022/07/26 01:26:33;;;;;;;11.55;10.35;;;;;;;22.44;74.85;99226.78;5029782;28;20404;-81
2022/07/26 01:28:58;;;;;;;10.73;9.63;;;;;;;22.38;74.85;99220.44;5028255;28;20049;-82
2022/07/26 01:31:24;;;;;;;10.25;9.35;;;;;;;22.43;74.25;99230.88;5028623;28;20543;-81
2022/07/26 01:33:50;;;;;;;11.82;9.45;;;;;;;22.42;74.71;99223.72;5029540;28;20064;-82
2022/07/26 01:36:15;;;;;;;10.13;9.23;;;;;;;22.40;73.21;99226.31;5027122;28;20033;-82
2022/07/26 01:38:41;;;;;;;11.45;9.82;;;;;;;22.37;74.76;99221.72;5035742;28;20038;-81
2022/07/26 01:41:07;;;;;;;10.23;9.35;;;;;;;22.31;74.39;99219.00;5028351;28;20511;-82
2022/07/26 01:43:33;;;;;;;11.63;10.13;;;;;;;22.30;73.95;99223.88;5029918;28;20065;-82
2022/07/26 01:45:58;;;;;;;13.00;8.68;;;;;;;22.31;73.74;99216.94;5030458;28;20049;-82
2022/07/26 01:48:24;;;;;;;10.38;9.38;;;;;;;22.35;73.65;99213.81;5027687;28;20044;-82
2022/07/26 01:50:49;;;;;;;9.52;8.45;;;;;;;22.34;73.42;99215.09;5045474;28;20030;-82
2022/07/26 01:53:15;;;;;;;10.43;9.43;;;;;;;22.34;74.19;99212.28;5028916;28;20049;-82
2022/07/26 01:55:40;;;;;;;10.30;9.27;;;;;;;22.30;74.01;99209.75;5028733;28;20051;-83
2022/07/26 01:58:06;;;;;;;10.52;9.48;;;;;;;22.36;73.77;99215.34;5029895;28;20043;-83
2022/07/26 02:00:33;;;;;;;10.32;9.05;;;;;;;22.38;73.41;99201.41;5028836;28;20408;-82
2022/07/26 02:02:59;;;;;;;10.57;9.57;;;;;;;22.40;73.81;99226.31;5032582;28;20037;-82
2022/07/26 02:05:25;;;;;;;10.55;9.60;;;;;;;22.39;74.17;99221.97;5048054;28;20063;-82
2022/07/26 02:07:50;;;;;;;12.00;9.80;;;;;;;22.38;73.01;99223.25;5047834;28;20028;-82
2022/07/26 02:10:16;;;;;;;10.38;9.38;;;;;;;22.32;73.42;99215.63;5052259;28;20041;-82
2022/07/26 02:12:42;;;;;;;11.48;9.40;;;;;;;22.25;73.84;99210.59;5054357;28;20102;-82
2022/07/26 02:15:08;;;;;;;10.48;9.48;;;;;;;22.26;73.48;99209.31;5053047;28;20048;-82
2022/07/26 02:17:34;;;;;;;10.70;9.65;;;;;;;22.31;72.67;99216.94;5051952;28;20045;-82
2022/07/26 02:20:00;;;;;;;11.05;9.20;;;;;;;22.35;72.26;99221.50;5051885;28;20108;-82
2022/07/26 02:22:25;;;;;;;10.93;9.27;;;;;;;22.38;71.88;99228.91;5053399;28;20037;-83
2022/07/26 02:24:51;;;;;;;10.68;9.70;;;;;;;22.27;72.81;99219.31;5053363;28;20561;-82
2022/07/26 02:27:17;;;;;;;10.45;9.35;;;;;;;22.22;73.42;99228.63;5050455;28;20044;-82
2022/07/26 02:29:43;;;;;;;11.00;9.85;;;;;;;22.13;74.65;99237.50;5053629;28;20545;-82
2022/07/26 02:32:09;;;;;;;11.48;10.32;;;;;;;22.12;74.17;99219.03;5053144;28;20069;-82
2022/07/26 02:34:35;;;;;;;10.60;9.65;;;;;;;22.08;74.07;99227.03;5052550;28;20062;-82
2022/07/26 02:37:01;;;;;;;10.63;9.55;;;;;;;22.05;74.18;99228.13;5053405;28;20504;-82
2022/07/26 02:39:27;;;;;;;10.45;9.48;;;;;;;22.03;73.30;99232.78;5051395;28;20044;-82
2022/07/26 02:41:54;;;;;;;10.80;9.70;;;;;;;22.01;73.05;99233.31;5051883;28;20099;-82
2022/07/26 02:44:20;;;;;;;10.82;9.77;;;;;;;22.05;72.36;99225.28;5052290;28;20484;-83
2022/07/26 02:46:45;;;;;;;10.60;9.50;;;;;;;22.02;71.97;99229.19;5052084;28;20061;-82
2022/07/26 02:49:11;;;;;;;10.40;9.48;;;;;;;22.01;72.24;99230.50;5051314;28;20108;-82
2022/07/26 02:51:37;;;;;;;11.15;10.05;;;;;;;21.97;74.78;99230.03;5048052;28;20045;-82
2022/07/26 02:54:02;;;;;;;12.18;9.60;;;;;;;21.95;76.09;99227.00;5052978;28;20508;-82
2022/07/26 02:56:28;;;;;;;12.52;9.95;;;;;;;21.94;79.47;99233.94;5049685;28;20392;-82
2022/07/26 02:58:54;;;;;;;10.70;9.63;;;;;;;21.88;79.86;99227.56;5053071;28;20472;-83
2022/07/26 03:01:19;;;;;;;11.57;10.07;;;;;;;21.90;81.41;99224.97;5051049;28;20453;-82
2022/07/26 03:03:46;;;;;;;11.27;10.05;;;;;;;21.90;80.56;99224.22;5049204;28;20141;-82
2022/07/26 03:06:12;;;;;;;10.95;9.93;;;;;;;21.85;79.93;99211.69;5051193;28;20076;-83
2022/07/26 03:08:37;;;;;;;10.60;9.55;;;;;;;21.81;80.18;99216.88;5050364;28;20428;-82
2022/07/26 03:11:04;;;;;;;9.90;9.02;;;;;;;21.81;78.95;99222.53;5049925;28;20041;-82
2022/07/26 03:13:29;;;;;;;10.77;9.65;;;;;;;21.78;79.14;99206.66;5053024;28;20490;-82
2022/07/26 03:15:55;;;;;;;10.07;9.18;;;;;;;21.67;79.97;99207.59;5047256;28;20140;-82
2022/07/26 03:18:20;;;;;;;10.40;9.50;;;;;;;21.65;80.01;99215.03;5047331;28;20041;-82
2022/07/26 03:20:46;;;;;;;10.55;9.63;;;;;;;21.63;80.55;99207.13;5051674;28;20029;-82
2022/07/26 03:23:12;;;;;;;11.07;9.85;;;;;;;21.59;80.05;99201.03;5052084;28;20123;-82
2022/07/26 03:25:37;;;;;;;10.93;10.02;;;;;;;21.63;79.53;99206.38;5051198;28;20116;-82
2022/07/26 03:28:03;;;;;;;11.07;9.98;;;;;;;21.55;80.77;99206.22;5049746;28;20084;-82
2022/07/26 03:30:29;;;;;;;11.50;9.77;;;;;;;21.58;79.62;99201.53;5051845;28;20063;-82
2022/07/26 03:32:54;;;;;;;11.20;10.20;;;;;;;21.59;79.35;99195.38;5051519;28;20041;-82
2022/07/26 03:35:20;;;;;;;11.13;9.98;;;;;;;21.53;78.77;99205.97;5050960;28;20090;-82
2022/07/26 03:37:45;;;;;;;10.68;9.68;;;;;;;21.53;78.05;99202.38;5050311;28;20041;-82
2022/07/26 03:40:11;;;;;;;10.13;9.23;;;;;;;21.49;77.13;99199.84;5050634;28;20115;-82
2022/07/26 03:42:37;;;;;;;11.98;9.10;;;;;;;21.51;76.77;99205.75;5048625;28;20125;-82
2022/07/26 03:45:03;;;;;;;10.48;9.48;;;;;;;21.55;76.91;99211.09;5051258;28;20127;-83
2022/07/26 03:47:29;;;;;;;10.65;9.50;;;;;;;21.55;76.02;99208.25;5049030;28;20041;-83
2022/07/26 03:49:54;;;;;;;10.75;9.65;;;;;;;21.57;75.60;99214.13;5049317;28;20048;-89
2022/07/26 03:52:20;;;;;;;11.10;9.40;;;;;;;21.63;75.04;99220.47;5049955;28;20052;-89
2022/07/26 03:54:45;;;;;;;10.98;9.43;;;;;;;21.66;74.84;99228.63;5048595;28;20124;-89
2022/07/26 03:57:11;;;;;;;12.75;10.35;;;;;;;21.71;74.31;99235.50;5047547;28;20592;-85
2022/07/26 03:59:36;;;;;;;11.02;9.80;;;;;;;21.76;75.13;99237.47;5050523;28;20036;-85
2022/07/26 04:02:02;;;;;;;10.82;9.77;;;;;;;21.79;76.12;99250.53;5045615;28;20140;-84
2022/07/26 04:04:28;;;;;;;11.50;10.20;;;;;;;21.68;77.17;99261.94;5049374;28;20045;-86
2022/07/26 04:06:55;;;;;;;11.63;10.43;;;;;;;21.56;78.05;99252.09;5050212;28;20315;-84
2022/07/26 04:09:21;;;;;;;12.30;9.77;;;;;;;21.52;77.81;99237.53;5050687;28;20134;-85
2022/07/26 04:11:47;;;;;;;12.90;11.43;;;;;;;21.52;77.09;99237.53;5048819;28;20488;-86
2022/07/26 04:14:12;;;;;;;10.82;9.73;;;;;;;21.58;77.28;99260.81;5050653;28;20103;-84
2022/07/26 04:16:38;;;;;;;12.30;9.40;;;;;;;21.62;76.11;99258.44;5050768;28;20123;-85
2022/07/26 04:19:04;;;;;;;10.75;9.57;;;;;;;21.55;76.27;99257.00;5055143;28;20036;-86
2022/07/26 04:21:29;;;;;;;11.95;9.55;;;;;;;21.62;75.91;99258.44;5053765;28;20399;-86
2022/07/26 04:23:55;;;;;;;10.23;9.25;;;;;;;21.64;75.85;99270.72;5049285;28;20496;-86
2022/07/26 04:26:20;;;;;;;10.98;9.85;;;;;;;21.58;78.34;99258.75;5050359;28;20041;-84
2022/07/26 04:28:46;;;;;;;10.80;9.70;;;;;;;21.62;77.80;99278.19;5051243;28;20060;-84
2022/07/26 04:31:12;;;;;;;12.38;11.18;;;;;;;21.69;77.32;99300.19;5049409;28;20037;-86
2022/07/26 04:33:37;;;;;;;12.45;9.63;;;;;;;21.62;79.04;99292.31;5051310;28;20488;-85
2022/07/26 04:36:03;;;;;;;11.18;10.07;;;;;;;21.62;78.53;99300.78;5049833;28;20037;-85
2022/07/26 04:38:29;;;;;;;11.25;9.95;;;;;;;21.60;78.44;99309.75;5049087;28;20033;-86
2022/07/26 04:40:56;;;;;;;11.57;9.75;;;;;;;21.63;78.61;99319.25;5052431;28;20044;-86
2022/07/26 04:43:22;;;;;;;10.63;9.63;;;;;;;21.63;78.85;99339.00;5050068;28;20041;-85
2022/07/26 04:45:48;;;;;;;10.80;9.75;;;;;;;21.62;77.94;99334.66;5050648;28;20135;-86
2022/07/26 04:48:14;;;;;;;11.05;9.95;;;;;;;21.69;76.74;99325.56;5050115;28;20213;-85
2022/07/26 04:50:40;;;;;;;10.73;9.13;;;;;;;21.79;75.78;99332.41;5048863;28;20128;-85
2022/07/26 04:53:05;;;;;;;11.27;10.18;;;;;;;21.88;75.54;99334.84;5050113;28;20051;-86
2022/07/26 04:55:31;;;;;;;10.63;9.63;;;;;;;21.95;74.00;99336.34;5049002;28;20508;-86
2022/07/26 04:57:56;;;;;;;10.02;9.13;;;;;;;22.02;73.51;99336.50;5048486;28;20583;-86
2022/07/26 05:00:23;;;;;;;9.57;8.68;;;;;;;22.10;72.82;99334.59;5046735;28;20048;-86
2022/07/26 05:02:56;;;;;;;10.93;8.77;;;;;;;22.21;71.74;99345.75;5048428;28;20036;-85
2022/07/26 05:05:23;;;;;;;10.13;9.05;;;;;;;22.31;71.68;99324.31;5050661;28;20570;-85
2022/07/26 05:07:52;;;;;;;10.88;9.63;;;;;;;22.43;70.71;99338.28;5048798;28;20033;-86
2022/07/26 05:10:18;;;;;;;10.20;9.20;;;;;;;22.53;70.55;99337.34;5048719;28;20060;-86
2022/07/26 05:12:45;;;;;;;11.02;9.93;;;;;;;22.64;69.84;99342.84;5049369;28;20120;-86
2022/07/26 05:15:11;;;;;;;11.18;9.23;;;;;;;22.77;69.30;99333.66;5048754;28;20500;-86
2022/07/26 05:17:38;;;;;;;10.07;9.07;;;;;;;22.91;68.37;99332.41;5050003;28;20043;-86
2022/07/26 05:20:04;;;;;;;10.50;8.20;;;;;;;23.12;67.30;99336.19;5049119;28;20041;-86
2022/07/26 05:22:29;;;;;;;8.45;7.65;;;;;;;23.32;67.07;99336.84;5042515;28;20148;-85
2022/07/26 05:24:55;;;;;;;9.88;7.43;;;;;;;23.40;66.82;99334.91;5049478;28;20556;-85
2022/07/26 05:27:21;;;;;;;7.93;6.90;;;;;;;23.54;67.32;99345.72;5047021;28;20116;-85
2022/07/26 05:29:47;;;;;;;8.07;6.50;;;;;;;23.63;66.61;99355.84;5050288;28;20047;-86
2022/07/26 05:32:12;;;;;;;8.90;6.63;;;;;;;23.72;66.25;99372.41;5048256;28;20044;-86
2022/07/26 05:34:38;;;;;;;8.95;6.05;;;;;;;23.82;66.21;99361.44;5049720;28;20128;-85
2022/07/26 05:37:03;;;;;;;8.73;6.65;;;;;;;23.91;66.09;99372.31;5046201;28;20889;-85
2022/07/26 05:39:29;;;;;;;9.27;6.18;;;;;;;24.02;65.16;99389.84;5041229;28;20038;-85
2022/07/26 05:41:54;;;;;;;7.38;5.80;;;;;;;24.13;65.04;99397.38;5040435;28;20025;-85
2022/07/26 05:44:22;;;;;;;7.93;6.20;;;;;;;24.22;64.97;99413.19;5043665;28;20041;-85
2022/07/26 05:46:47;;;;;;;7.60;5.80;;;;;;;24.35;64.58;99407.47;5041771;28;20049;-85
2022/07/26 05:49:13;;;;;;;7.28;5.55;;;;;;;24.42;65.20;99416.13;5040926;28;20475;-85
2022/07/26 05:51:38;;;;;;;6.00;5.40;;;;;;;24.51;64.97;99412.03;5039334;28;20060;-85
2022/07/26 05:54:04;;;;;;;6.75;5.30;;;;;;;24.61;64.85;99415.94;5043008;28;20060;-85
2022/07/26 05:56:29;;;;;;;6.55;5.20;;;;;;;24.68;65.08;99418.09;5037512;28;20030;-85
2022/07/26 05:58:55;;;;;;;6.63;4.80;;;;;;;24.71;65.48;99417.00;5044629;28;20088;-86
2022/07/26 06:01:20;;;;;;;7.30;4.53;;;;;;;24.87;65.92;99413.03;5045612;28;20433;-85
2022/07/26 06:03:46;;;;;;;4.88;4.05;;;;;;;24.92;65.55;99397.97;5044222;28;20045;-86
2022/07/26 06:06:11;;;;;;;6.40;4.13;;;;;;;24.97;65.52;99408.44;5049174;28;20041;-85
2022/07/26 06:08:37;;;;;;;6.55;3.70;;;;;;;24.94;66.15;99406.72;5047339;28;20041;-86
2022/07/26 06:11:02;;;;;;;9.35;4.20;;;;;;;24.96;66.73;99409.75;5045723;28;20051;-85
2022/07/26 06:13:28;;;;;;;6.68;4.20;;;;;;;25.23;65.81;99429.50;5045810;28;20041;-86
2022/07/26 06:15:53;;;;;;;7.28;3.83;;;;;;;25.31;64.00;99419.00;5046721;28;20459;-86
2022/07/26 06:18:19;;;;;;;4.57;3.40;;;;;;;25.40;64.05;99412.81;5047462;28;20443;-86
2022/07/26 06:20:46;;;;;;;4.13;3.65;;;;;;;25.29;63.94;99413.09;5048315;28;20116;-85
2022/07/26 06:23:12;;;;;;;4.95;3.70;;;;;;;25.14;65.08;99429.97;5037197;28;20030;-90
2022/07/26 06:25:38;;;;;;;7.95;3.67;;;;;;;25.13;65.06;99442.63;5037461;28;20103;-92
2022/07/26 06:28:05;;;;;;;5.35;3.30;;;;;;;24.88;66.15;99436.50;5040962;28;20504;-92
2022/07/26 06:30:30;;;;;;;4.43;3.33;;;;;;;24.67;66.95;99439.25;5037934;28;20072;-90
2022/07/26 06:32:56;;;;;;;3.73;3.13;;;;;;;24.73;67.56;99447.66;5038710;28;20534;-90
2022/07/26 06:35:22;;;;;;;4.13;3.20;;;;;;;24.64;68.04;99451.72;5042058;28;20463;-90
2022/07/26 06:37:49;;;;;;;6.22;3.53;;;;;;;24.50;68.10;99436.81;5038016;28;20037;-90
2022/07/26 06:40:14;;;;;;;5.75;3.47;;;;;;;24.46;68.89;99424.28;5036786;28;20037;-90
2022/07/26 06:42:40;;;;;;;8.05;3.33;;;;;;;24.45;68.61;99422.75;5038392;28;20064;-91
2022/07/26 06:45:06;;;;;;;6.80;3.78;;;;;;;24.36;69.75;99406.94;5060061;28;20044;-92
2022/07/26 06:47:32;;;;;;;5.57;3.50;;;;;;;24.43;69.50;99431.03;5025184;28;20029;-92
2022/07/26 06:49:58;;;;;;;3.97;3.22;;;;;;;24.35;69.35;99427.31;5041807;28;20041;-91
2022/07/26 06:52:23;;;;;;;4.45;2.92;;;;;;;24.33;69.52;99433.56;5044322;28;20029;-93
2022/07/26 06:54:49;;;;;;;6.22;3.72;;;;;;;24.25;70.25;99443.25;5046478;28;20100;-89
2022/07/26 06:57:14;;;;;;;5.03;3.22;;;;;;;24.30;69.93;99439.56;5048244;28;20029;-89
2022/07/26 06:59:40;;;;;;;3.67;3.03;;;;;;;24.23;69.73;99451.53;5031644;28;20415;-92
2022/07/26 07:02:05;;;;;;;4.28;2.85;;;;;;;24.09;70.11;99465.69;5041648;28;20033;-92
2022/07/26 07:04:32;;;;;;;4.68;3.00;;;;;;;23.97;70.37;99458.72;5049899;28;20575;-91
2022/07/26 07:07:03;;;;;;;7.78;2.70;;;;;;;23.90;70.09;99465.00;5025650;28;20045;-91
2022/07/26 07:09:32;;;;;;;4.63;2.92;;;;;;;23.78;71.20;99469.34;5022458;28;20041;-90
2022/07/26 07:11:58;;;;;;;5.68;2.83;;;;;;;23.66;70.49;99474.44;5044109;28;20043;-90
2022/07/26 07:14:23;;;;;;;3.95;3.40;;;;;;;23.64;71.12;99479.13;5051702;28;20404;-91
2022/07/26 07:16:49;;;;;;;6.05;3.20;;;;;;;23.70;71.64;99474.13;5035179;28;20569;-90
2022/07/26 07:19:14;;;;;;;6.70;2.97;;;;;;;23.76;71.44;99491.78;5052793;28;20110;-90
2022/07/26 07:21:40;;;;;;;4.32;3.08;;;;;;;23.82;71.38;99492.44;5052809;28;20056;-89
2022/07/26 07:24:06;;;;;;;4.32;3.20;;;;;;;23.91;71.49;99491.25;5037990;28;20052;-91
2022/07/26 07:26:31;;;;;;;4.90;3.10;;;;;;;23.88;70.99;99495.94;5031499;28;20037;-90
2022/07/26 07:28:57;;;;;;;4.78;3.13;;;;;;;23.86;71.06;99504.22;5047576;28;20037;-91
2022/07/26 07:31:23;;;;;;;5.22;3.17;;;;;;;23.97;69.19;99491.94;5001025;28;20436;-91
2022/07/26 07:33:49;;;;;;;7.45;3.22;;;;;;;24.04;68.99;99480.72;5028498;28;20057;-90
2022/07/26 07:36:14;;;;;;;4.60;2.80;;;;;;;24.15;68.31;99474.88;5031593;28;20032;-91
2022/07/26 07:38:40;;;;;;;5.85;2.90;;;;;;;24.12;67.79;99487.25;5030243;28;20038;-91
2022/07/26 07:41:05;;;;;;;5.72;3.13;;;;;;;24.07;67.94;99485.28;5029523;28;20594;-92
2022/07/26 07:43:31;;;;;;;5.38;3.15;;;;;;;24.10;68.44;99487.03;5029985;28;20137;-91
2022/07/26 07:45:57;;;;;;;5.03;3.03;;;;;;;23.96;68.07;99501.75;5037418;28;20056;-89
2022/07/26 07:48:22;;;;;;;6.38;3.00;;;;;;;23.80;68.17;99505.63;5028682;28;20393;-92
2022/07/26 07:50:48;;;;;;;4.75;3.60;;;;;;;23.79;69.53;99513.34;5033164;28;20049;-91
2022/07/26 07:53:13;;;;;;;4.30;3.20;;;;;;;23.68;69.53;99516.38;5049904;28;20037;-91
2022/07/26 07:55:39;;;;;;;4.50;3.00;;;;;;;23.38;70.69;99521.47;5050626;28;20052;-91
2022/07/26 07:58:04;;;;;;;3.90;2.85;;;;;;;23.39;71.55;99528.66;5001151;28;20040;-91
2022/07/26 08:00:30;;;;;;;4.25;3.28;;;;;;;23.20;72.18;99529.47;5032352;28;20057;-91
2022/07/26 08:02:55;;;;;;;5.90;3.50;;;;;;;23.11;72.62;99529.84;5032781;28;20029;-91
2022/07/26 08:05:21;;;;;;;6.10;3.13;;;;;;;22.98;73.94;99535.41;5048241;28;20084;-91
2022/07/26 08:07:46;;;;;;;6.25;3.70;;;;;;;22.94;74.14;99551.91;5048670;28;20566;-94
2022/07/26 08:10:12;;;;;;;6.32;3.60;;;;;;;22.77;75.34;99548.53;5033912;28;20048;-91
2022/07/26 08:12:38;;;;;;;5.68;3.58;;;;;;;22.91;75.44;99553.00;5049277;28;20049;-92
2022/07/26 08:15:04;;;;;;;4.95;3.38;;;;;;;23.08;75.29;99539.41;5049306;28;20527;-92
2022/07/26 08:17:30;;;;;;;4.43;3.10;;;;;;;23.30;74.42;99554.50;5032717;28;20064;-92
2022/07/26 08:19:55;;;;;;;6.20;3.80;;;;;;;23.36;73.98;99543.88;5050757;28;20084;-93
2022/07/26 08:22:21;;;;;;;5.50;3.78;;;;;;;23.37;74.11;99539.75;5044370;28;20095;-92
2022/07/26 08:24:46;;;;;;;5.32;3.58;;;;;;;23.49;73.72;99549.63;5040825;28;20056;-92
2022/07/26 08:27:12;;;;;;;7.05;4.35;;;;;;;23.38;73.96;99546.94;5048596;28;20412;-93
2022/07/26 08:29:38;;;;;;;5.53;3.60;;;;;;;23.53;74.81;99547.25;5032594;28;20759;-91
2022/07/26 08:32:04;;;;;;;5.63;3.60;;;;;;;23.57;74.12;99547.72;5029165;28;20057;-91
2022/07/26 08:34:29;;;;;;;4.78;3.67;;;;;;;23.62;73.56;99541.19;5012034;28;20484;-92
2022/07/26 08:36:55;;;;;;;3.90;3.50;;;;;;;23.73;73.93;99554.41;5056396;28;20051;-91
2022/07/26 08:39:21;;;;;;;5.47;4.18;;;;;;;23.84;73.80;99534.41;5048322;28;20036;-92
2022/07/26 08:41:46;;;;;;;6.93;3.85;;;;;;;23.82;73.04;99548.34;5032426;28;20037;-92
2022/07/26 08:44:14;;;;;;;5.00;4.35;;;;;;;23.86;72.78;99543.88;5034514;28;20464;-91
2022/07/26 08:46:41;;;;;;;6.43;3.95;;;;;;;24.06;72.96;99551.75;5029142;28;20040;-92
2022/07/26 08:49:09;;;;;;;5.03;4.05;;;;;;;24.07;72.24;99547.63;5012079;28;20061;-92
2022/07/26 08:51:41;;;;;;;5.55;3.95;;;;;;;24.12;72.03;99549.59;5038524;28;20033;-93
2022/07/26 08:54:08;;;;;;;6.22;3.85;;;;;;;24.34;70.90;99559.81;5081795;28;20084;-92
2022/07/26 08:56:36;;;;;;;4.80;4.30;;;;;;;24.11;70.80;99569.97;5048650;28;20202;-92
2022/07/26 08:59:14;;;;;;;5.30;4.18;;;;;;;24.11;69.58;99559.41;5031974;28;20107;-92
2022/07/26 09:01:50;;;;;;;5.00;3.85;;;;;;;23.76;70.90;99551.25;5031913;28;20492;-93
2022/07/26 09:04:18;;;;;;;5.22;4.35;;;;;;;23.52;73.07;99571.97;5031029;28;20052;-92
2022/07/26 09:06:57;;;;;;;4.90;4.25;;;;;;;23.58;73.25;99564.16;5031424;28;20052;-92
2022/07/26 09:09:22;;;;;;;5.50;4.20;;;;;;;23.42;73.90;99572.84;5047796;28;20056;-93
2022/07/26 09:11:48;;;;;;;5.03;4.53;;;;;;;23.40;74.31;99578.31;5046219;28;20388;-92
2022/07/26 09:14:14;;;;;;;4.90;4.25;;;;;;;23.30;74.41;99597.72;5041917;28;20532;-92
2022/07/26 09:16:39;;;;;;;6.07;4.85;;;;;;;23.21;75.18;99590.38;5030563;28;20075;-92
2022/07/26 09:19:21;;;;;;;5.45;4.40;;;;;;;23.29;75.75;99598.28;5049091;28;20045;-92
2022/07/26 09:21:47;;;;;;;5.40;4.40;;;;;;;23.34;75.29;99591.75;5047972;28;20052;-93
2022/07/26 09:24:28;;;;;;;6.10;4.68;;;;;;;23.52;74.51;99576.88;5058511;22;20049;-82
2022/07/26 09:26:57;;;;;;;5.35;4.38;;;;;;;23.64;74.10;99579.00;5030212;28;20463;-83
2022/07/26 09:29:22;;;;;;;5.25;4.40;;;;;;;23.77;73.40;99589.59;5029515;28;20491;-82
2022/07/26 09:31:48;;;;;;;7.45;4.75;;;;;;;23.78;73.72;99574.13;5013607;28;20064;-82
2022/07/26 09:34:23;;;;;;;5.70;4.53;;;;;;;23.94;72.67;99590.09;5013018;28;20450;-82
2022/07/26 09:36:53;;;;;;;6.07;4.20;;;;;;;23.90;71.84;99600.22;5013677;28;20072;-82
2022/07/26 09:39:19;;;;;;;4.72;4.18;;;;;;;23.72;72.38;99607.44;5013067;28;20061;-82
2022/07/26 09:41:44;;;;;;;5.90;4.30;;;;;;;23.60;74.47;99608.91;5029678;28;20044;-82
2022/07/26 09:44:24;;;;;;;5.22;4.00;;;;;;;23.63;73.20;99605.78;5030329;28;20049;-83
2022/07/26 09:46:52;;;;;;;6.38;4.38;;;;;;;23.69;72.98;99611.34;5031112;28;20038;-82
2022/07/26 09:49:19;;;;;;;7.35;4.22;;;;;;;23.70;72.17;99598.72;5013110;28;20133;-82
2022/07/26 09:51:46;;;;;;;6.53;4.60;;;;;;;23.67;71.49;99623.22;5013311;28;20041;-82
2022/07/26 09:54:29;;;;;;;4.90;4.30;;;;;;;23.69;72.49;99619.84;5012818;28;20037;-82
2022/07/26 09:56:55;;;;;;;6.75;4.35;;;;;;;23.81;71.39;99621.22;4996961;28;20041;-82
2022/07/26 09:59:22;;;;;;;5.45;4.00;;;;;;;23.84;71.30;99620.13;5029565;28;20060;-82
2022/07/26 10:01:49;;;;;;;5.60;4.20;;;;;;;23.86;71.03;99600.50;5017550;28;20076;-82
2022/07/26 10:04:15;;;;;;;4.43;3.97;;;;;;;23.92;70.51;99615.38;5050371;28;20037;-81
2022/07/26 10:06:41;;;;;;;5.28;4.00;;;;;;;24.09;70.08;99624.38;5050411;28;20041;-82
2022/07/26 10:09:08;;;;;;;5.00;3.67;;;;;;;24.00;69.20;99616.25;5050627;28;20155;-82
2022/07/26 10:11:55;;;;;;;5.72;3.60;;;;;;;24.03;68.50;99614.41;5022107;28;20041;-82
2022/07/26 10:14:43;;;;;;;4.22;3.30;;;;;;;24.04;66.89;99616.72;5028835;28;20073;-82
2022/07/26 10:17:27;;;;;;;5.38;3.33;;;;;;;24.03;66.11;99608.75;5030805;28;20049;-82
2022/07/26 10:19:54;;;;;;;5.80;3.55;;;;;;;24.19;66.97;99626.78;5030672;28;20132;-82
2022/07/26 10:22:33;;;;;;;5.82;3.58;;;;;;;24.37;65.81;99628.81;5029002;28;20504;-82
2022/07/26 10:25:16;;;;;;;4.03;3.30;;;;;;;24.51;65.58;99624.66;5030481;28;20107;-80
2022/07/26 10:27:54;;;;;;;4.65;3.63;;;;;;;24.36;65.61;99632.94;5046872;28;20124;-81
2022/07/26 10:30:22;;;;;;;5.15;3.70;;;;;;;24.43;65.53;99635.91;5034552;28;20048;-81
2022/07/26 10:32:53;;;;;;;5.72;4.03;;;;;;;24.37;65.36;99645.81;5052935;28;20040;-82
2022/07/26 10:35:42;;;;;;;5.20;3.65;;;;;;;24.19;66.11;99643.78;5052232;28;20454;-81
2022/07/26 10:38:11;;;;;;;6.53;3.97;;;;;;;24.12;66.95;99645.94;5051181;28;20044;-81
2022/07/26 10:40:39;;;;;;;8.68;3.75;;;;;;;23.92;67.63;99643.69;5049066;28;20048;-81
2022/07/26 10:43:09;;;;;;;6.40;3.80;;;;;;;23.76;69.62;99658.09;5030082;28;20049;-82
2022/07/26 10:45:36;;;;;;;6.22;4.47;;;;;;;23.62;69.84;99655.19;5052024;28;20045;-83
2022/07/26 10:48:11;;;;;;;5.75;4.40;;;;;;;23.52;71.62;99656.13;5016096;28;20045;-83
2022/07/26 10:50:37;;;;;;;5.32;4.75;;;;;;;23.26;72.67;99634.06;5047440;28;20041;-81
2022/07/26 10:53:03;;;;;;;5.18;4.35;;;;;;;23.39;73.26;99645.47;5034429;28;20050;-81
2022/07/26 10:55:28;;;;;;;5.28;4.78;;;;;;;23.29;73.57;99652.81;5050735;28;20420;-80
2022/07/26 10:57:54;;;;;;;5.65;5.00;;;;;;;23.20;74.42;99653.94;5034410;28;20045;-82
2022/07/26 11:00:25;;;;;;;7.30;4.90;;;;;;;23.14;74.88;99656.06;5051671;28;20123;-82
2022/07/26 11:02:56;;;;;;;5.57;5.00;;;;;;;23.09;75.78;99637.09;5026893;28;20049;-81
2022/07/26 11:05:27;;;;;;;7.05;5.10;;;;;;;23.20;75.18;99653.94;5039246;28;20052;-82
2022/07/26 11:08:00;;;;;;;5.82;5.15;;;;;;;23.17;77.38;99643.69;5018751;28;20147;-81
2022/07/26 11:10:29;;;;;;;5.85;5.25;;;;;;;22.77;84.94;99661.63;5048028;28;20044;-82
2022/07/26 11:13:03;;;;;;;6.03;5.18;;;;;;;22.33;89.34;99657.94;5052295;28;20052;-82
2022/07/26 11:15:29;;;;;;;6.90;5.80;;;;;;;22.00;95.64;99663.84;5051693;28;20052;-81
2022/07/26 11:18:34;;;;;;;7.78;6.22;;;;;;;21.61;100.00;99680.25;5051996;28;20033;-82
2022/07/26 11:21:14;;;;;;;7.75;6.95;;;;;;;21.24;100.00;99681.44;5035521;28;20436;-82
2022/07/26 11:23:42;;;;;;;8.20;7.40;;;;;;;20.84;100.00;99673.59;5033372;28;20407;-82
2022/07/26 11:26:12;;;;;;;8.68;7.78;;;;;;;20.65;100.00;99678.28;5017601;28;20439;-82
2022/07/26 11:28:56;;;;;;;10.98;8.38;;;;;;;20.63;100.00;99659.03;5032365;28;20071;-81